Time;durP1;ratioP1;P1;durP2;ratioP2;P2;SDS_P1;SDS_P2;PMS_P1;PMS_P2;Temp;Humidity;BMP_temperature;BMP_pressure;BME280_temperature;BME280_humidity;BME280_pressure;Samples;Min_cycle;Max_cycle;Signal;HPM_P1;HPM_P2
2020/12/14 00:01:52;;;;;;;21.07;13.73;;;;;;;;;;5035735;28;20645;-77
2020/12/14 00:04:17;;;;;;;21.83;13.67;;;;;;;;;;5035914;28;20264;-78
2020/12/14 00:06:48;;;;;;;28.90;17.80;;;;;;;;;;5035701;28;20616;-78
2020/12/14 00:09:13;;;;;;;29.97;18.93;;;;;;;;;;5035620;28;20253;-78
2020/12/14 00:11:38;;;;;;;37.87;21.70;;;;;;;;;;5036664;28;20620;-78
2020/12/14 00:14:04;;;;;;;27.40;16.80;;;;;;;;;;5035834;28;20171;-78
2020/12/14 00:16:29;;;;;;;28.53;16.00;;;;;;;;;;5035856;28;20173;-78
2020/12/14 00:18:54;;;;;;;28.33;15.80;;;;;;;;;;5036038;28;20172;-78
2020/12/14 00:21:20;;;;;;;29.47;17.13;;;;;;;;;;5035699;28;20256;-78
2020/12/14 00:23:47;;;;;;;26.80;15.73;;;;;;;;;;5035720;28;20175;-77
2020/12/14 00:26:13;;;;;;;37.83;23.87;;;;;;;;;;5036235;28;20190;-77
2020/12/14 00:28:38;;;;;;;26.97;16.33;;;;;;;;;;5035252;28;20204;-78
2020/12/14 00:31:03;;;;;;;21.10;13.03;;;;;;;;;;5035476;28;20232;-78
2020/12/14 00:33:28;;;;;;;19.43;12.47;;;;;;;;;;5036551;28;20171;-77
2020/12/14 00:35:54;;;;;;;23.27;14.30;;;;;;;;;;5060199;28;20239;-77
2020/12/14 00:38:19;;;;;;;24.30;14.97;;;;;;;;;;5053261;28;20258;-77
2020/12/14 00:40:44;;;;;;;19.93;12.43;;;;;;;;;;5035327;28;20173;-77
2020/12/14 00:43:10;;;;;;;23.40;13.37;;;;;;;;;;5035435;28;20169;-78
2020/12/14 00:45:37;;;;;;;30.27;16.70;;;;;;;;;;5034920;28;20219;-78
2020/12/14 00:48:02;;;;;;;68.00;30.00;;;;;;;;;;5035161;28;20322;-77
2020/12/14 00:50:27;;;;;;;61.87;27.43;;;;;;;;;;5035208;28;20184;-78
2020/12/14 00:52:52;;;;;;;62.57;25.80;;;;;;;;;;5035066;28;20168;-77
2020/12/14 00:55:18;;;;;;;78.90;34.13;;;;;;;;;;5035307;28;20203;-77
2020/12/14 00:57:43;;;;;;;36.43;19.17;;;;;;;;;;5034679;28;20169;-77
2020/12/14 01:00:08;;;;;;;19.33;11.80;;;;;;;;;;5034773;28;20224;-78
2020/12/14 01:02:34;;;;;;;19.47;12.00;;;;;;;;;;5042233;28;20209;-78
2020/12/14 01:04:59;;;;;;;19.60;12.60;;;;;;;;;;5054861;28;20623;-78
2020/12/14 01:07:24;;;;;;;18.53;12.40;;;;;;;;;;5054365;28;20582;-78
2020/12/14 01:09:49;;;;;;;21.07;12.60;;;;;;;;;;5054905;28;20202;-77
2020/12/14 01:12:15;;;;;;;27.90;15.23;;;;;;;;;;5053365;28;20171;-77
2020/12/14 01:14:41;;;;;;;24.63;14.77;;;;;;;;;;5054609;28;20172;-78
2020/12/14 01:17:06;;;;;;;30.43;14.87;;;;;;;;;;5054243;28;20321;-77
2020/12/14 01:19:31;;;;;;;22.60;13.73;;;;;;;;;;5054293;28;20183;-77
2020/12/14 01:21:57;;;;;;;24.03;13.27;;;;;;;;;;5054480;28;20164;-77
2020/12/14 01:24:22;;;;;;;28.73;13.73;;;;;;;;;;5054140;28;20569;-77
2020/12/14 01:26:47;;;;;;;25.53;14.23;;;;;;;;;;5054312;28;20269;-78
2020/12/14 01:29:13;;;;;;;25.23;12.90;;;;;;;;;;5053964;28;20200;-77
2020/12/14 01:31:38;;;;;;;24.87;14.10;;;;;;;;;;5054319;28;20199;-78
2020/12/14 01:34:03;;;;;;;21.90;13.13;;;;;;;;;;5054585;28;20180;-77
2020/12/14 01:36:28;;;;;;;28.07;14.83;;;;;;;;;;5054183;28;20583;-77
2020/12/14 01:38:54;;;;;;;20.63;12.97;;;;;;;;;;5053896;28;20182;-79
2020/12/14 01:41:19;;;;;;;31.47;16.30;;;;;;;;;;5054443;28;20203;-77
2020/12/14 01:43:44;;;;;;;26.23;15.70;;;;;;;;;;5054346;28;20168;-77
2020/12/14 01:46:10;;;;;;;29.03;16.97;;;;;;;;;;5053789;28;20168;-77
2020/12/14 01:48:36;;;;;;;24.13;14.80;;;;;;;;;;5053978;28;20207;-77
2020/12/14 01:51:01;;;;;;;23.73;13.60;;;;;;;;;;5053725;28;20175;-77
2020/12/14 01:53:28;;;;;;;20.63;13.03;;;;;;;;;;5054027;28;20249;-78
2020/12/14 01:55:54;;;;;;;22.60;14.43;;;;;;;;;;5053650;28;20619;-77
2020/12/14 01:58:19;;;;;;;19.63;12.13;;;;;;;;;;5054026;28;20226;-78
2020/12/14 02:00:45;;;;;;;20.93;13.00;;;;;;;;;;5053916;28;20159;-77
2020/12/14 02:03:10;;;;;;;18.53;11.43;;;;;;;;;;5053862;28;20255;-78
2020/12/14 02:05:35;;;;;;;15.97;10.00;;;;;;;;;;5053569;28;20175;-77
2020/12/14 02:08:00;;;;;;;16.53;9.90;;;;;;;;;;5053995;28;20211;-77
2020/12/14 02:10:26;;;;;;;14.90;9.33;;;;;;;;;;5053428;28;20177;-77
2020/12/14 02:12:51;;;;;;;16.53;10.60;;;;;;;;;;5054041;28;20190;-77
2020/12/14 02:15:16;;;;;;;17.47;10.50;;;;;;;;;;5053734;28;20167;-77
2020/12/14 02:17:42;;;;;;;16.10;10.33;;;;;;;;;;5053708;28;20183;-77
2020/12/14 02:20:07;;;;;;;19.70;11.80;;;;;;;;;;5053643;28;20172;-77
2020/12/14 02:22:33;;;;;;;18.30;10.87;;;;;;;;;;5053648;28;20254;-78
2020/12/14 02:24:59;;;;;;;17.93;10.87;;;;;;;;;;5053476;28;20211;-78
2020/12/14 02:27:25;;;;;;;17.30;11.13;;;;;;;;;;5053210;28;20336;-77
2020/12/14 02:29:51;;;;;;;18.53;11.20;;;;;;;;;;5057348;28;20638;-77
2020/12/14 02:32:17;;;;;;;16.60;10.13;;;;;;;;;;5057602;28;20197;-77
2020/12/14 02:34:42;;;;;;;15.27;10.27;;;;;;;;;;5056907;28;20614;-77
2020/12/14 02:37:08;;;;;;;16.03;9.70;;;;;;;;;;5057701;28;20180;-77
2020/12/14 02:39:37;;;;;;;14.70;9.13;;;;;;;;;;5057377;28;20175;-77
2020/12/14 02:42:03;;;;;;;15.57;8.83;;;;;;;;;;5057609;28;20194;-77
2020/12/14 02:44:28;;;;;;;17.27;9.87;;;;;;;;;;5057224;28;20650;-77
2020/12/14 02:46:54;;;;;;;13.97;9.37;;;;;;;;;;5057172;28;20175;-77
2020/12/14 02:49:19;;;;;;;21.17;12.93;;;;;;;;;;5057088;28;20195;-77
2020/12/14 02:51:44;;;;;;;19.33;12.80;;;;;;;;;;5058198;28;20308;-78
2020/12/14 02:54:09;;;;;;;18.43;12.67;;;;;;;;;;5057115;28;20262;-77
2020/12/14 02:56:35;;;;;;;17.60;11.23;;;;;;;;;;5057204;28;20576;-77
2020/12/14 02:59:00;;;;;;;15.43;10.50;;;;;;;;;;5056715;28;20231;-77
2020/12/14 03:01:25;;;;;;;16.40;10.70;;;;;;;;;;5056873;28;20282;-77
2020/12/14 03:03:51;;;;;;;20.53;11.80;;;;;;;;;;5057171;28;20185;-77
2020/12/14 03:06:16;;;;;;;17.27;10.93;;;;;;;;;;5057274;28;20176;-78
2020/12/14 03:08:41;;;;;;;18.70;11.33;;;;;;;;;;5056736;28;20188;-77
2020/12/14 03:11:06;;;;;;;16.60;10.43;;;;;;;;;;5056720;28;20176;-77
2020/12/14 03:13:32;;;;;;;18.57;10.70;;;;;;;;;;5057011;28;20164;-77
2020/12/14 03:15:57;;;;;;;16.67;10.60;;;;;;;;;;5056861;28;20583;-77
2020/12/14 03:18:22;;;;;;;16.83;9.77;;;;;;;;;;5057114;28;20175;-77
2020/12/14 03:20:48;;;;;;;15.30;10.00;;;;;;;;;;5056766;28;20168;-78
2020/12/14 03:23:13;;;;;;;16.13;9.60;;;;;;;;;;5056604;28;20227;-77
2020/12/14 03:25:40;;;;;;;13.53;8.67;;;;;;;;;;5056991;28;20587;-77
2020/12/14 03:28:05;;;;;;;13.83;8.97;;;;;;;;;;5056438;28;20191;-77
2020/12/14 03:30:31;;;;;;;13.97;9.07;;;;;;;;;;5056898;28;20183;-78
2020/12/14 03:32:56;;;;;;;14.93;9.13;;;;;;;;;;5056640;28;20619;-77
2020/12/14 03:35:21;;;;;;;14.27;9.03;;;;;;;;;;5056563;28;20654;-77
2020/12/14 03:37:47;;;;;;;17.80;10.50;;;;;;;;;;5056882;28;20519;-77
2020/12/14 03:40:15;;;;;;;17.20;11.23;;;;;;;;;;5055419;28;20172;-77
2020/12/14 03:42:41;;;;;;;15.77;11.10;;;;;;;;;;5055135;28;20168;-77
2020/12/14 03:45:06;;;;;;;24.50;15.17;;;;;;;;;;5056423;28;20614;-77
2020/12/14 03:47:31;;;;;;;22.03;14.97;;;;;;;;;;5056320;28;20191;-77
2020/12/14 03:49:57;;;;;;;23.13;15.40;;;;;;;;;;5056350;28;20175;-77
2020/12/14 03:52:22;;;;;;;19.00;12.50;;;;;;;;;;5055942;28;20168;-77
2020/12/14 03:54:47;;;;;;;16.80;10.87;;;;;;;;;;5056030;28;20642;-77
2020/12/14 03:57:13;;;;;;;15.17;10.63;;;;;;;;;;5055845;28;20179;-77
2020/12/14 03:59:38;;;;;;;18.20;10.80;;;;;;;;;;5056256;28;20223;-77
2020/12/14 04:02:03;;;;;;;17.13;11.47;;;;;;;;;;5056012;28;20619;-77
2020/12/14 04:04:29;;;;;;;18.17;10.90;;;;;;;;;;5055757;28;20168;-77
2020/12/14 04:06:57;;;;;;;23.43;12.50;;;;;;;;;;5056109;28;20168;-77
2020/12/14 04:09:23;;;;;;;20.53;11.53;;;;;;;;;;5056153;28;20230;-77
2020/12/14 04:11:48;;;;;;;12.50;7.83;;;;;;;;;;5056142;28;20230;-77
2020/12/14 04:14:13;;;;;;;11.70;7.60;;;;;;;;;;5056109;28;20176;-77
2020/12/14 04:16:42;;;;;;;12.27;8.00;;;;;;;;;;5055551;28;20175;-77
2020/12/14 04:19:07;;;;;;;10.77;7.90;;;;;;;;;;5056020;28;20172;-77
2020/12/14 04:21:32;;;;;;;13.40;9.10;;;;;;;;;;5055392;28;20242;-77
2020/12/14 04:23:58;;;;;;;15.00;9.10;;;;;;;;;;5055345;28;20175;-77
2020/12/14 04:26:23;;;;;;;14.83;8.83;;;;;;;;;;5055656;28;20534;-77
2020/12/14 04:28:48;;;;;;;17.13;11.03;;;;;;;;;;5055150;28;20199;-77
2020/12/14 04:31:13;;;;;;;22.67;14.10;;;;;;;;;;5055112;28;20198;-77
2020/12/14 04:33:40;;;;;;;24.43;13.00;;;;;;;;;;5055722;28;20191;-77
2020/12/14 04:36:05;;;;;;;25.53;14.27;;;;;;;;;;5055440;28;20172;-77
2020/12/14 04:38:31;;;;;;;24.33;13.30;;;;;;;;;;5055036;28;20653;-77
2020/12/14 04:41:01;;;;;;;18.87;12.00;;;;;;;;;;5054966;28;20637;-78
2020/12/14 04:43:26;;;;;;;19.20;12.63;;;;;;;;;;5055326;28;20241;-77
2020/12/14 04:45:51;;;;;;;21.47;12.33;;;;;;;;;;5054948;28;20643;-77
2020/12/14 04:48:17;;;;;;;24.80;12.83;;;;;;;;;;5055398;28;20252;-77
2020/12/14 04:50:43;;;;;;;23.23;14.00;;;;;;;;;;5054426;28;20627;-77
2020/12/14 04:53:09;;;;;;;26.47;13.97;;;;;;;;;;5054752;28;20183;-77
2020/12/14 04:55:38;;;;;;;24.53;13.43;;;;;;;;;;5055321;28;20168;-77
2020/12/14 04:58:04;;;;;;;24.10;13.77;;;;;;;;;;5055088;28;20175;-77
2020/12/14 05:00:30;;;;;;;21.77;12.00;;;;;;;;;;5055237;28;20170;-77
2020/12/14 05:02:56;;;;;;;19.97;11.33;;;;;;;;;;5054678;28;20172;-77
2020/12/14 05:05:22;;;;;;;16.07;9.63;;;;;;;;;;5054563;28;20168;-77
2020/12/14 05:07:47;;;;;;;14.17;9.60;;;;;;;;;;5054511;28;20628;-77
2020/12/14 05:10:12;;;;;;;17.53;11.73;;;;;;;;;;5054816;28;20226;-77
2020/12/14 05:12:39;;;;;;;16.77;11.73;;;;;;;;;;5054456;28;20167;-77
2020/12/14 05:15:14;;;;;;;19.27;11.73;;;;;;;;;;5054944;28;20183;-77
2020/12/14 05:17:39;;;;;;;23.57;13.07;;;;;;;;;;5055196;28;20159;-77
2020/12/14 05:20:11;;;;;;;23.10;14.67;;;;;;;;;;5054346;28;20172;-77
2020/12/14 05:22:38;;;;;;;19.77;12.70;;;;;;;;;;5054667;28;20160;-77
2020/12/14 05:25:03;;;;;;;15.97;10.57;;;;;;;;;;5054691;28;20172;-77
2020/12/14 05:27:32;;;;;;;17.07;9.60;;;;;;;;;;5054416;28;20217;-77
2020/12/14 05:29:57;;;;;;;21.07;12.33;;;;;;;;;;5054352;28;20261;-77
2020/12/14 05:32:23;;;;;;;22.07;12.90;;;;;;;;;;5053971;28;20211;-77
2020/12/14 05:34:48;;;;;;;32.27;15.67;;;;;;;;;;5065407;28;20176;-77
2020/12/14 05:37:14;;;;;;;34.40;17.83;;;;;;;;;;5072857;28;20172;-77
2020/12/14 05:39:40;;;;;;;21.87;12.70;;;;;;;;;;5074249;28;20163;-77
2020/12/14 05:42:26;;;;;;;24.63;15.30;;;;;;;;;;5078214;28;20220;-77
2020/12/14 05:44:52;;;;;;;27.97;19.10;;;;;;;;;;5068380;28;20235;-77
2020/12/14 05:47:23;;;;;;;27.80;18.43;;;;;;;;;;5055438;28;20202;-77
2020/12/14 05:49:49;;;;;;;24.00;16.00;;;;;;;;;;5053865;28;20176;-77
2020/12/14 05:52:16;;;;;;;23.30;15.77;;;;;;;;;;5053821;28;20230;-77
2020/12/14 05:54:48;;;;;;;19.87;12.50;;;;;;;;;;5053715;28;20255;-77
2020/12/14 05:57:14;;;;;;;15.00;10.33;;;;;;;;;;5054504;28;20171;-78
2020/12/14 05:59:40;;;;;;;18.07;12.47;;;;;;;;;;5054162;28;20223;-78
2020/12/14 06:02:06;;;;;;;12.53;8.77;;;;;;;;;;5053784;28;20172;-78
2020/12/14 06:04:34;;;;;;;14.27;9.20;;;;;;;;;;5053923;28;20187;-78
2020/12/14 06:07:05;;;;;;;15.13;10.60;;;;;;;;;;5053570;28;20259;-78
2020/12/14 06:09:39;;;;;;;12.80;8.97;;;;;;;;;;5053958;28;20200;-78
2020/12/14 06:12:04;;;;;;;14.90;9.60;;;;;;;;;;5053544;28;20187;-79
2020/12/14 06:14:39;;;;;;;16.43;10.03;;;;;;;;;;5054129;28;20217;-78
2020/12/14 06:17:09;;;;;;;46.23;20.03;;;;;;;;;;5053321;28;20286;-78
2020/12/14 06:19:35;;;;;;;57.53;25.97;;;;;;;;;;5053310;28;20168;-78
2020/12/14 06:22:02;;;;;;;42.23;22.27;;;;;;;;;;5053363;28;20225;-78
2020/12/14 06:24:28;;;;;;;32.67;18.10;;;;;;;;;;5053960;28;20653;-78
2020/12/14 06:26:53;;;;;;;32.90;17.67;;;;;;;;;;5053342;28;20179;-78
2020/12/14 06:29:38;;;;;;;24.03;13.43;;;;;;;;;;5053601;28;20536;-78
2020/12/14 06:32:23;;;;;;;20.53;13.57;;;;;;;;;;5053543;28;20210;-78
2020/12/14 06:34:49;;;;;;;26.77;16.67;;;;;;;;;;5053165;28;20176;-78
2020/12/14 06:37:18;;;;;;;24.27;14.73;;;;;;;;;;5053591;28;20173;-78
2020/12/14 06:39:45;;;;;;;18.50;11.70;;;;;;;;;;5053213;28;20645;-78
2020/12/14 06:42:10;;;;;;;18.80;11.93;;;;;;;;;;5054097;28;20172;-78
2020/12/14 06:44:36;;;;;;;18.50;11.40;;;;;;;;;;5053187;28;20661;-78
2020/12/14 06:47:14;;;;;;;17.67;11.13;;;;;;;;;;5053455;28;20267;-78
2020/12/14 06:49:40;;;;;;;16.17;11.00;;;;;;;;;;5053507;28;20665;-78
2020/12/14 06:52:05;;;;;;;24.10;14.90;;;;;;;;;;5053598;28;20172;-78
2020/12/14 06:54:40;;;;;;;28.87;18.27;;;;;;;;;;5053769;28;20176;-78
2020/12/14 06:57:06;;;;;;;32.53;20.10;;;;;;;;;;5053376;28;20570;-79
2020/12/14 06:59:32;;;;;;;25.83;16.40;;;;;;;;;;5053033;28;20224;-78
2020/12/14 07:02:01;;;;;;;74.17;39.63;;;;;;;;;;5053072;28;20185;-78
2020/12/14 07:04:29;;;;;;;39.47;23.07;;;;;;;;;;5053204;28;20171;-78
2020/12/14 07:07:17;;;;;;;63.97;34.10;;;;;;;;;;5052876;28;20172;-78
2020/12/14 07:09:43;;;;;;;37.47;22.27;;;;;;;;;;5053084;28;20194;-78
2020/12/14 07:12:08;;;;;;;22.33;15.17;;;;;;;;;;5053279;28;20180;-78
2020/12/14 07:14:54;;;;;;;21.23;14.47;;;;;;;;;;5054635;28;20171;-78
2020/12/14 07:17:19;;;;;;;18.03;12.07;;;;;;;;;;5056891;28;20191;-78
2020/12/14 07:19:46;;;;;;;32.33;20.83;;;;;;;;;;5056557;28;20164;-78
2020/12/14 07:22:13;;;;;;;24.27;17.93;;;;;;;;;;5057474;28;20176;-78
2020/12/14 07:24:40;;;;;;;18.27;10.80;;;;;;;;;;5056609;28;20206;-78
2020/12/14 07:27:08;;;;;;;15.33;11.00;;;;;;;;;;5056848;28;20176;-78
2020/12/14 07:29:33;;;;;;;14.07;9.93;;;;;;;;;;5056738;28;20277;-78
2020/12/14 07:32:02;;;;;;;21.73;13.37;;;;;;;;;;5056638;28;20196;-78
2020/12/14 07:34:28;;;;;;;15.40;10.67;;;;;;;;;;5056824;28;20251;-78
2020/12/14 07:36:53;;;;;;;15.83;10.60;;;;;;;;;;5047532;28;20678;-79
2020/12/14 07:39:18;;;;;;;22.70;14.57;;;;;;;;;;5036202;28;20200;-78
2020/12/14 07:41:47;;;;;;;23.30;15.77;;;;;;;;;;5036304;28;20173;-78
2020/12/14 07:44:12;;;;;;;18.90;11.43;;;;;;;;;;5036848;28;20173;-78
2020/12/14 07:46:38;;;;;;;12.17;8.40;;;;;;;;;;5036509;28;20255;-78
2020/12/14 07:49:08;;;;;;;11.17;7.37;;;;;;;;;;5036480;28;20218;-78
2020/12/14 07:51:36;;;;;;;15.20;9.37;;;;;;;;;;5036687;28;20321;-78
2020/12/14 07:54:03;;;;;;;12.33;8.83;;;;;;;;;;5036591;28;20520;-78
2020/12/14 07:56:29;;;;;;;14.47;9.53;;;;;;;;;;5036051;28;20575;-78
2020/12/14 07:58:54;;;;;;;13.83;9.47;;;;;;;;;;5036094;28;20262;-78
2020/12/14 08:01:20;;;;;;;14.93;10.60;;;;;;;;;;5036451;28;20519;-78
2020/12/14 08:03:45;;;;;;;17.13;11.53;;;;;;;;;;5036447;28;20180;-78
2020/12/14 08:06:11;;;;;;;15.97;10.90;;;;;;;;;;5031515;28;20181;-79
2020/12/14 08:08:39;;;;;;;16.43;11.20;;;;;;;;;;5034744;28;20204;-79
2020/12/14 08:11:04;;;;;;;18.40;12.53;;;;;;;;;;5035576;28;20259;-78
2020/12/14 08:13:29;;;;;;;25.10;16.57;;;;;;;;;;5036194;28;20315;-78
2020/12/14 08:15:55;;;;;;;33.07;19.73;;;;;;;;;;5035627;28;20569;-78
2020/12/14 08:18:20;;;;;;;29.33;21.13;;;;;;;;;;5034800;28;20620;-79
2020/12/14 08:20:47;;;;;;;19.43;13.30;;;;;;;;;;5036228;28;20179;-78
2020/12/14 08:23:16;;;;;;;23.23;15.20;;;;;;;;;;5035295;28;20226;-78
2020/12/14 08:25:44;;;;;;;22.37;14.40;;;;;;;;;;5033789;28;20210;-78
2020/12/14 08:28:09;;;;;;;24.17;16.07;;;;;;;;;;5035350;28;20224;-78
2020/12/14 08:30:35;;;;;;;23.13;15.07;;;;;;;;;;5035264;28;20709;-78
2020/12/14 08:33:16;;;;;;;21.53;13.47;;;;;;;;;;5034892;28;20184;-78
2020/12/14 08:35:43;;;;;;;17.93;12.03;;;;;;;;;;5035529;28;20255;-79
2020/12/14 08:38:10;;;;;;;21.07;13.10;;;;;;;;;;5035235;28;20276;-79
2020/12/14 08:40:36;;;;;;;22.70;15.77;;;;;;;;;;5035018;28;20180;-79
2020/12/14 08:43:08;;;;;;;29.57;19.47;;;;;;;;;;5019809;28;20173;-79
2020/12/14 08:45:33;;;;;;;29.83;20.57;;;;;;;;;;5015850;28;20169;-78
2020/12/14 08:47:59;;;;;;;27.73;19.10;;;;;;;;;;5016981;28;20263;-78
2020/12/14 08:50:25;;;;;;;28.50;18.00;;;;;;;;;;5035107;28;20184;-78
2020/12/14 08:53:00;;;;;;;23.53;14.47;;;;;;;;;;5035241;28;20295;-78
2020/12/14 08:55:35;;;;;;;16.27;11.30;;;;;;;;;;5034122;28;20234;-78
2020/12/14 08:58:01;;;;;;;18.73;12.03;;;;;;;;;;5034894;28;20226;-79
2020/12/14 09:00:26;;;;;;;16.90;12.13;;;;;;;;;;5035458;28;20532;-78
2020/12/14 09:02:58;;;;;;;16.37;10.97;;;;;;;;;;5035595;28;20177;-78
2020/12/14 09:05:23;;;;;;;15.00;10.20;;;;;;;;;;5035509;28;20235;-78
2020/12/14 09:07:49;;;;;;;14.40;9.50;;;;;;;;;;5034759;28;20298;-78
2020/12/14 09:10:18;;;;;;;16.53;10.93;;;;;;;;;;5034886;28;20168;-79
2020/12/14 09:12:43;;;;;;;20.73;13.33;;;;;;;;;;5034398;28;20192;-79
2020/12/14 09:15:09;;;;;;;42.30;25.23;;;;;;;;;;5034523;28;20208;-78
2020/12/14 09:17:34;;;;;;;28.37;19.20;;;;;;;;;;5034570;28;20200;-79
2020/12/14 09:20:00;;;;;;;20.83;13.03;;;;;;;;;;5034724;28;20622;-78
2020/12/14 09:22:25;;;;;;;17.30;12.03;;;;;;;;;;5034584;28;20227;-79
2020/12/14 09:24:51;;;;;;;16.50;12.40;;;;;;;;;;5033710;28;20215;-79
2020/12/14 09:27:16;;;;;;;20.63;14.93;;;;;;;;;;5034806;28;20204;-79
2020/12/14 09:29:42;;;;;;;20.17;16.17;;;;;;;;;;5034169;28;20701;-79
2020/12/14 09:32:11;;;;;;;17.10;11.67;;;;;;;;;;5035130;28;20278;-79
2020/12/14 09:34:37;;;;;;;17.70;13.37;;;;;;;;;;5034367;28;20306;-78
2020/12/14 09:37:02;;;;;;;14.03;10.00;;;;;;;;;;5034396;28;20200;-78
2020/12/14 09:39:29;;;;;;;13.17;9.70;;;;;;;;;;5034298;28;20180;-78
2020/12/14 09:41:56;;;;;;;14.37;10.70;;;;;;;;;;5033091;28;20208;-78
2020/12/14 09:44:21;;;;;;;20.10;12.60;;;;;;;;;;5033964;28;20681;-78
2020/12/14 09:46:47;;;;;;;16.80;12.93;;;;;;;;;;5033825;28;20188;-80
2020/12/14 09:49:12;;;;;;;17.53;12.17;;;;;;;;;;5034375;28;20196;-77
2020/12/14 09:51:37;;;;;;;23.00;15.30;;;;;;;;;;5034216;28;20177;-77
2020/12/14 09:54:03;;;;;;;22.90;16.13;;;;;;;;;;5034114;28;20514;-77
2020/12/14 09:56:28;;;;;;;96.10;51.13;;;;;;;;;;5034061;28;20596;-77
2020/12/14 09:58:54;;;;;;;42.30;27.20;;;;;;;;;;5033715;28;20224;-77
2020/12/14 10:01:19;;;;;;;59.57;40.53;;;;;;;;;;5034042;28;20268;-77
2020/12/14 10:03:45;;;;;;;64.60;42.07;;;;;;;;;;5033655;28;20645;-77
2020/12/14 10:06:13;;;;;;;58.33;38.07;;;;;;;;;;5034157;28;20519;-77
2020/12/14 10:08:39;;;;;;;42.60;29.33;;;;;;;;;;5032353;28;20231;-77
2020/12/14 10:11:05;;;;;;;39.30;28.77;;;;;;;;;;5033982;28;20235;-79
2020/12/14 10:13:30;;;;;;;32.93;24.03;;;;;;;;;;5033580;28;20227;-77
2020/12/14 10:15:56;;;;;;;50.70;34.93;;;;;;;;;;5031191;28;20567;-77
2020/12/14 10:18:21;;;;;;;140.00;63.20;;;;;;;;;;5031187;28;20199;-78
2020/12/14 10:20:46;;;;;;;39.70;22.37;;;;;;;;;;5031554;28;20175;-78
2020/12/14 10:23:12;;;;;;;87.13;52.37;;;;;;;;;;5031736;28;20211;-77
2020/12/14 10:25:38;;;;;;;98.50;58.17;;;;;;;;;;5031621;28;20268;-80
2020/12/14 10:28:03;;;;;;;47.90;30.80;;;;;;;;;;5033710;28;20192;-78
2020/12/14 10:30:29;;;;;;;246.93;196.30;;;;;;;;;;5033404;28;20180;-80
2020/12/14 10:32:54;;;;;;;165.70;127.17;;;;;;;;;;5027317;28;20553;-80
2020/12/14 10:35:20;;;;;;;56.17;37.17;;;;;;;;;;5033501;28;20531;-79
2020/12/14 10:37:46;;;;;;;134.37;83.50;;;;;;;;;;5031074;28;20184;-79
2020/12/14 10:40:11;;;;;;;40.70;27.47;;;;;;;;;;5034166;28;20172;-79
2020/12/14 10:42:37;;;;;;;40.93;26.67;;;;;;;;;;5033845;28;20168;-79
2020/12/14 10:45:02;;;;;;;28.23;19.07;;;;;;;;;;5033226;28;20266;-79
2020/12/14 10:47:28;;;;;;;25.27;16.40;;;;;;;;;;5033463;28;20176;-79
2020/12/14 10:49:53;;;;;;;23.53;15.70;;;;;;;;;;5035485;28;20199;-79
2020/12/14 10:52:19;;;;;;;21.03;14.93;;;;;;;;;;5034135;28;20262;-80
2020/12/14 10:54:44;;;;;;;26.80;18.83;;;;;;;;;;5035738;28;20176;-80
2020/12/14 10:57:09;;;;;;;25.43;17.30;;;;;;;;;;5035322;28;20570;-80
2020/12/14 10:59:35;;;;;;;26.77;17.50;;;;;;;;;;5035432;28;20227;-79
2020/12/14 11:02:00;;;;;;;22.83;15.83;;;;;;;;;;5035296;28;20635;-79
2020/12/14 11:04:25;;;;;;;21.00;14.07;;;;;;;;;;5034202;28;20207;-80
2020/12/14 11:06:51;;;;;;;23.63;15.80;;;;;;;;;;5035242;28;20272;-80
2020/12/14 11:09:16;;;;;;;21.53;14.83;;;;;;;;;;5036705;28;20199;-80
2020/12/14 11:11:41;;;;;;;23.60;16.07;;;;;;;;;;5035805;28;20643;-80
2020/12/14 11:14:07;;;;;;;22.70;15.77;;;;;;;;;;5035999;28;20168;-80
2020/12/14 11:16:37;;;;;;;23.83;16.03;;;;;;;;;;5027096;28;20180;-81
2020/12/14 11:19:02;;;;;;;26.70;17.80;;;;;;;;;;5027705;28;20176;-79
2020/12/14 11:21:27;;;;;;;29.00;20.10;;;;;;;;;;5037316;28;20344;-78
2020/12/14 11:23:53;;;;;;;24.63;15.87;;;;;;;;;;5035972;28;20293;-79
2020/12/14 11:26:18;;;;;;;24.93;15.47;;;;;;;;;;5034505;28;20172;-79
2020/12/14 11:28:43;;;;;;;50.53;29.57;;;;;;;;;;5036753;28;20201;-79
2020/12/14 11:31:09;;;;;;;28.93;19.00;;;;;;;;;;5036325;28;20196;-78
2020/12/14 11:33:35;;;;;;;25.33;17.90;;;;;;;;;;5036687;28;20172;-78
2020/12/14 11:36:01;;;;;;;24.87;16.47;;;;;;;;;;5037000;28;20179;-78
2020/12/14 11:38:26;;;;;;;34.73;23.43;;;;;;;;;;5036230;28;20211;-78
2020/12/14 11:40:51;;;;;;;35.17;24.93;;;;;;;;;;5036301;28;20196;-79
2020/12/14 11:43:17;;;;;;;32.70;24.10;;;;;;;;;;5036801;28;20232;-79
2020/12/14 11:45:42;;;;;;;28.73;23.10;;;;;;;;;;5036656;28;20175;-79
2020/12/14 11:48:08;;;;;;;17.67;12.67;;;;;;;;;;5034461;28;20204;-79
2020/12/14 11:50:33;;;;;;;22.93;16.73;;;;;;;;;;5030638;28;20180;-80
2020/12/14 11:52:58;;;;;;;20.83;15.03;;;;;;;;;;5019379;28;20176;-80
2020/12/14 11:55:24;;;;;;;22.00;15.53;;;;;;;;;;5034421;28;20165;-81
2020/12/14 11:57:49;;;;;;;22.43;15.90;;;;;;;;;;5026724;28;20177;-79
2020/12/14 12:00:15;;;;;;;22.77;16.00;;;;;;;;;;5033377;28;20220;-79
2020/12/14 12:02:40;;;;;;;20.60;14.53;;;;;;;;;;5034386;28;20181;-79
2020/12/14 12:05:05;;;;;;;21.70;14.10;;;;;;;;;;5033553;28;20176;-79
2020/12/14 12:07:30;;;;;;;24.57;15.20;;;;;;;;;;5033149;28;20184;-79
2020/12/14 12:09:56;;;;;;;32.80;21.90;;;;;;;;;;5033521;28;20670;-80
2020/12/14 12:12:22;;;;;;;29.70;19.17;;;;;;;;;;5032927;28;20185;-80
2020/12/14 12:14:47;;;;;;;24.57;14.87;;;;;;;;;;5033693;28;20176;-80
2020/12/14 12:17:12;;;;;;;21.63;16.43;;;;;;;;;;5033688;28;20178;-80
2020/12/14 12:19:38;;;;;;;25.07;16.37;;;;;;;;;;5033685;28;20180;-79
2020/12/14 12:22:03;;;;;;;24.60;16.90;;;;;;;;;;5033761;28;20218;-80
2020/12/14 12:24:28;;;;;;;29.97;20.37;;;;;;;;;;5034170;28;20568;-80
2020/12/14 12:26:54;;;;;;;33.23;21.60;;;;;;;;;;5034624;28;20169;-79
2020/12/14 12:29:19;;;;;;;30.10;20.27;;;;;;;;;;5035243;28;20204;-79
2020/12/14 12:31:48;;;;;;;31.07;20.40;;;;;;;;;;5033816;28;20196;-79
2020/12/14 12:34:13;;;;;;;30.53;19.47;;;;;;;;;;5047279;28;20178;-80
2020/12/14 12:36:39;;;;;;;27.50;19.53;;;;;;;;;;5049051;28;20263;-79
2020/12/14 12:39:04;;;;;;;32.63;19.77;;;;;;;;;;5035192;28;20259;-80
2020/12/14 12:41:29;;;;;;;45.23;29.13;;;;;;;;;;5035178;28;20595;-80
2020/12/14 12:43:55;;;;;;;30.67;21.83;;;;;;;;;;5035443;28;20172;-80
2020/12/14 12:46:25;;;;;;;34.57;22.53;;;;;;;;;;5035087;28;20223;-80
2020/12/14 12:48:50;;;;;;;31.37;21.43;;;;;;;;;;5034421;28;20267;-79
2020/12/14 12:51:15;;;;;;;37.53;23.30;;;;;;;;;;5035198;28;20169;-80
2020/12/14 12:53:41;;;;;;;37.23;23.13;;;;;;;;;;5034270;28;20183;-79
2020/12/14 12:56:06;;;;;;;31.80;20.13;;;;;;;;;;5035317;28;20271;-79
2020/12/14 12:58:31;;;;;;;28.93;18.97;;;;;;;;;;5034084;28;20775;-80
2020/12/14 13:00:57;;;;;;;32.33;19.77;;;;;;;;;;5035378;28;20668;-79
2020/12/14 13:03:22;;;;;;;36.37;22.77;;;;;;;;;;5035022;28;20676;-80
2020/12/14 13:05:47;;;;;;;43.27;24.67;;;;;;;;;;5035015;28;20283;-81
2020/12/14 13:08:13;;;;;;;43.47;25.90;;;;;;;;;;5034792;28;20215;-79
2020/12/14 13:10:38;;;;;;;46.97;26.30;;;;;;;;;;5034820;28;20253;-80
2020/12/14 13:13:04;;;;;;;38.00;22.37;;;;;;;;;;5034197;28;20171;-80
2020/12/14 13:15:29;;;;;;;34.37;21.60;;;;;;;;;;5034814;28;20208;-80
2020/12/14 13:17:55;;;;;;;38.23;23.47;;;;;;;;;;5034880;28;20278;-79
2020/12/14 13:20:20;;;;;;;35.27;24.13;;;;;;;;;;5034877;28;20643;-79
2020/12/14 13:22:46;;;;;;;31.17;19.80;;;;;;;;;;5034118;28;20171;-80
2020/12/14 13:25:11;;;;;;;24.97;17.07;;;;;;;;;;5033809;28;20165;-79
2020/12/14 13:27:36;;;;;;;27.17;17.83;;;;;;;;;;5033674;28;20177;-80
2020/12/14 13:30:03;;;;;;;28.67;18.40;;;;;;;;;;5033996;28;20208;-79
2020/12/14 13:32:28;;;;;;;29.10;18.80;;;;;;;;;;5034104;28;20214;-79
2020/12/14 13:34:55;;;;;;;80.00;43.30;;;;;;;;;;5033457;28;20180;-79
2020/12/14 13:37:21;;;;;;;40.13;26.20;;;;;;;;;;5033870;28;20175;-78
2020/12/14 13:39:46;;;;;;;37.83;22.90;;;;;;;;;;5027117;28;20180;-79
2020/12/14 13:42:11;;;;;;;29.33;16.23;;;;;;;;;;5033565;28;20180;-78
2020/12/14 13:44:36;;;;;;;46.13;29.60;;;;;;;;;;5033723;28;20526;-78
2020/12/14 13:47:02;;;;;;;47.50;30.13;;;;;;;;;;5033443;28;20177;-78
2020/12/14 13:49:27;;;;;;;67.73;49.50;;;;;;;;;;5033596;28;20223;-78
2020/12/14 13:51:55;;;;;;;55.67;38.90;;;;;;;;;;5033494;28;20251;-79
2020/12/14 13:54:20;;;;;;;42.73;28.63;;;;;;;;;;5033459;28;20252;-80
2020/12/14 13:56:46;;;;;;;31.80;21.73;;;;;;;;;;5033162;28;20247;-78
2020/12/14 13:59:11;;;;;;;29.40;18.73;;;;;;;;;;5033331;28;20228;-79
2020/12/14 14:01:36;;;;;;;68.97;36.13;;;;;;;;;;5033435;28;20624;-79
2020/12/14 14:04:02;;;;;;;74.53;41.33;;;;;;;;;;5033066;28;20222;-78
2020/12/14 14:06:27;;;;;;;74.43;42.07;;;;;;;;;;5033803;28;20173;-78
2020/12/14 14:08:52;;;;;;;76.77;48.23;;;;;;;;;;5033511;28;20200;-79
2020/12/14 14:11:18;;;;;;;125.07;71.43;;;;;;;;;;5034561;28;20180;-79
2020/12/14 14:13:43;;;;;;;97.87;59.67;;;;;;;;;;5034175;28;20168;-79